Point Lay, Alaska
Current Conditions -  °F | °C
As of 5:55 AM on Monday 22 Dec 2014 (Local Time) from PALU Reporting Station
Light Snow Light Snow  
Wind Chill: -20°   Ceiling: 1700
Heat Index:   Visibility: 10mi
Dew Point: -3°   Wind: 16mph
Humidity: 86%   Direction: 300°WNW
Pressure: 29.87"   Gusts: NA
Location:  69.72°N, 163.09°W
Report Text: PALU 221455Z AUTO 30014KT 10SM -SN OVC017 M18/M19 A2987 RMK AO2 SNB1355 SLP116 P0000 60000 T11771195 52011
Loading
Personal Weather Stations






























Interactive Weather Map New forecast layout! Learn more

10-Day Weather Forecast

Advertisements
Track Severe Weather on mobile